createdAt,value
2023-06-13T00:00:29.917Z,2.90
2023-06-13T00:02:59.499Z,3.13
2023-06-13T00:05:28.324Z,3.23
2023-06-13T00:07:55.806Z,3.60
2023-06-13T00:10:23.220Z,3.20
2023-06-13T00:12:52.284Z,3.07
2023-06-13T00:15:19.785Z,3.40
2023-06-13T00:17:49.315Z,3.30
2023-06-13T00:20:17.305Z,3.20
2023-06-13T00:22:46.396Z,3.10
2023-06-13T00:25:13.997Z,3.13
2023-06-13T00:27:41.392Z,3.17
2023-06-13T00:30:09.326Z,3.50
2023-06-13T00:32:37.084Z,3.00
2023-06-13T00:35:04.992Z,3.30
2023-06-13T00:37:35.280Z,3.47
2023-06-13T00:40:05.337Z,3.30
2023-06-13T00:42:32.969Z,3.10
2023-06-13T00:45:19.139Z,3.30
2023-06-13T00:47:47.280Z,3.50
2023-06-13T00:50:16.315Z,3.10
2023-06-13T00:52:44.098Z,3.13
2023-06-13T00:55:13.101Z,3.40
2023-06-13T00:57:40.858Z,3.40
2023-06-13T01:00:09.980Z,3.30
2023-06-13T01:02:37.792Z,3.00
2023-06-13T01:05:05.496Z,3.37
2023-06-13T01:07:35.606Z,3.33
2023-06-13T01:10:04.693Z,3.17
2023-06-13T01:12:36.887Z,3.40
2023-06-13T01:15:07.612Z,3.30
2023-06-13T01:17:38.197Z,3.10
2023-06-13T01:20:11.163Z,3.30
2023-06-13T01:22:43.129Z,3.53
2023-06-13T01:25:14.417Z,3.17
2023-06-13T01:27:46.159Z,3.60
2023-06-13T01:30:13.943Z,3.47
2023-06-13T01:32:42.390Z,3.43
2023-06-13T01:35:10.122Z,3.67
2023-06-13T01:37:38.404Z,3.30
2023-06-13T01:40:06.577Z,3.40
2023-06-13T01:42:35.446Z,3.57
2023-06-13T01:45:06.015Z,3.57
2023-06-13T01:47:37.039Z,3.47
2023-06-13T01:50:12.001Z,3.20
2023-06-13T01:52:43.746Z,3.33
2023-06-13T01:55:15.598Z,3.53
2023-06-13T01:57:45.772Z,3.40
2023-06-13T02:00:17.337Z,3.67
2023-06-13T02:02:45.666Z,3.43
2023-06-13T02:05:13.905Z,3.47
2023-06-13T02:07:41.696Z,3.60
2023-06-13T02:10:09.495Z,3.50
2023-06-13T02:12:37.305Z,3.50
2023-06-13T02:15:05.109Z,3.67
2023-06-13T02:17:34.177Z,3.60
2023-06-13T02:20:01.961Z,3.70
2023-06-13T02:22:29.522Z,3.20
2023-06-13T02:24:58.381Z,3.63
2023-06-13T02:27:26.726Z,3.30
2023-06-13T02:29:55.589Z,3.53
2023-06-13T02:32:23.814Z,3.60
2023-06-13T02:34:54.681Z,3.80
2023-06-13T02:37:22.257Z,3.63
2023-06-13T02:39:49.813Z,3.70
2023-06-13T02:42:17.446Z,3.47
2023-06-13T02:44:45.434Z,3.70
2023-06-13T02:47:12.984Z,3.70
2023-06-13T02:49:40.559Z,3.80
2023-06-13T02:52:09.658Z,3.73
2023-06-13T02:54:37.132Z,3.80
2023-06-13T02:57:04.895Z,3.40
2023-06-13T02:59:33.331Z,3.47
2023-06-13T03:02:00.893Z,3.63
2023-06-13T03:04:29.323Z,3.60
2023-06-13T03:06:57.398Z,3.73
2023-06-13T03:09:26.599Z,4.10
2023-06-13T03:11:55.359Z,4.00
2023-06-13T03:14:24.713Z,3.63
2023-06-13T03:16:54.216Z,3.77
2023-06-13T03:19:22.339Z,3.50
2023-06-13T03:21:49.882Z,3.70
2023-06-13T03:24:17.539Z,3.73
2023-06-13T03:26:46.578Z,3.87
2023-06-13T03:29:14.250Z,3.60
2023-06-13T03:31:41.884Z,3.90
2023-06-13T03:34:09.448Z,3.80
2023-06-13T03:36:38.466Z,3.97
2023-06-13T03:39:06.572Z,3.73
2023-06-13T03:41:35.487Z,3.70
2023-06-13T03:44:05.014Z,3.60
2023-06-13T03:46:32.499Z,3.53
2023-06-13T03:49:00.230Z,3.90
2023-06-13T03:51:27.929Z,3.73
2023-06-13T03:53:55.454Z,3.83
2023-06-13T03:56:23.030Z,3.70
2023-06-13T03:58:51.670Z,3.80
2023-06-13T04:01:20.500Z,4.27
2023-06-13T04:03:48.151Z,4.00
2023-06-13T04:06:18.357Z,4.20
2023-06-13T04:08:45.924Z,4.00
2023-06-13T04:11:13.364Z,4.07
2023-06-13T04:13:42.145Z,3.50
2023-06-13T04:16:09.674Z,4.07
2023-06-13T04:18:40.607Z,3.67
2023-06-13T04:21:09.169Z,4.13
2023-06-13T04:23:36.721Z,4.20
2023-06-13T04:26:05.069Z,4.90
2023-06-13T04:28:33.331Z,4.20
2023-06-13T04:31:04.559Z,4.90
2023-06-13T04:33:34.325Z,4.23
2023-06-13T04:36:06.696Z,4.23
2023-06-13T04:38:35.651Z,4.27
2023-06-13T04:41:03.945Z,4.17
2023-06-13T04:43:34.877Z,4.47
2023-06-13T04:46:07.998Z,4.10
2023-06-13T04:48:37.483Z,4.23
2023-06-13T04:51:10.079Z,4.37
2023-06-13T04:53:39.057Z,4.30
2023-06-13T04:56:07.624Z,4.80
2023-06-13T04:58:35.129Z,4.27
2023-06-13T05:01:03.916Z,4.60
2023-06-13T05:03:32.748Z,4.77
2023-06-13T05:06:01.158Z,4.87
2023-06-13T05:08:30.106Z,4.73
2023-06-13T05:10:58.936Z,4.43
2023-06-13T05:13:26.395Z,4.63
2023-06-13T05:15:55.787Z,4.67
2023-06-13T05:18:30.494Z,4.50
2023-06-13T05:20:58.375Z,4.60
2023-06-13T05:23:25.867Z,4.63
2023-06-13T05:25:54.688Z,4.47
2023-06-13T05:28:22.605Z,4.53
2023-06-13T05:30:52.670Z,4.23
2023-06-13T05:33:20.141Z,4.20
2023-06-13T05:35:56.973Z,4.40
2023-06-13T05:38:25.701Z,4.17
2023-06-13T05:40:53.184Z,4.63
2023-06-13T05:43:22.062Z,4.60
2023-06-13T05:45:49.615Z,3.90
2023-06-13T05:48:17.160Z,4.13
2023-06-13T05:50:44.658Z,4.20
2023-06-13T05:53:12.334Z,3.70
2023-06-13T05:55:39.892Z,3.90
2023-06-13T05:58:07.599Z,3.80
2023-06-13T06:00:37.987Z,3.60
2023-06-13T06:03:06.567Z,3.70
2023-06-13T06:05:34.336Z,3.97
2023-06-13T06:08:01.806Z,3.70
2023-06-13T06:10:29.254Z,3.50
2023-06-13T06:12:56.747Z,3.17
2023-06-13T06:15:24.306Z,3.50
2023-06-13T06:17:53.183Z,3.80
2023-06-13T06:20:20.929Z,3.47
2023-06-13T06:22:48.507Z,3.60
2023-06-13T06:25:21.953Z,3.50
2023-06-13T06:27:51.164Z,3.30
2023-06-13T06:30:18.899Z,4.10
2023-06-13T06:32:46.551Z,3.30
2023-06-13T06:35:15.815Z,3.63
2023-06-13T06:37:44.168Z,3.60
2023-06-13T06:40:12.129Z,3.67
2023-06-13T06:42:39.970Z,3.80
2023-06-13T06:45:11.888Z,3.33
2023-06-13T06:47:39.490Z,3.57
2023-06-13T06:50:07.313Z,3.70
2023-06-13T06:52:36.388Z,3.33
2023-06-13T06:55:04.278Z,3.20
2023-06-13T06:57:31.746Z,3.37
2023-06-13T06:59:59.262Z,3.47
2023-06-13T07:02:26.786Z,3.33
2023-06-13T07:04:54.286Z,3.87
2023-06-13T07:07:21.778Z,3.40
2023-06-13T07:09:50.666Z,3.50
2023-06-13T07:12:18.140Z,3.30
2023-06-13T07:14:45.611Z,3.33
2023-06-13T07:17:13.308Z,3.67
2023-06-13T07:19:40.921Z,3.40
2023-06-13T07:22:08.408Z,4.03
2023-06-13T07:24:36.122Z,3.83
2023-06-13T07:27:05.382Z,3.70
2023-06-13T07:29:32.921Z,3.80
2023-06-13T07:32:00.531Z,3.20
2023-06-13T07:34:54.375Z,3.60
2023-06-13T07:37:15.656Z,3.27
2023-06-13T07:39:43.083Z,3.83
2023-06-13T07:42:12.831Z,3.80
2023-06-13T07:44:40.771Z,4.00
2023-06-13T07:47:08.406Z,3.90
2023-06-13T07:49:35.870Z,3.63
2023-06-13T07:52:03.635Z,3.17
2023-06-13T07:54:31.576Z,3.87
2023-06-13T07:57:01.123Z,3.47
2023-06-13T07:59:30.430Z,3.90
2023-06-13T08:01:57.982Z,4.00
2023-06-13T08:04:31.125Z,3.97
2023-06-13T08:07:11.434Z,3.57
2023-06-13T08:09:38.993Z,4.00
2023-06-13T08:12:08.268Z,3.73
2023-06-13T08:14:37.225Z,3.83
2023-06-13T08:17:04.782Z,3.70
2023-06-13T08:19:32.244Z,3.50
2023-06-13T08:21:59.839Z,3.60
2023-06-13T08:24:27.389Z,3.87
2023-06-13T08:26:55.621Z,4.00
2023-06-13T08:29:24.692Z,3.50
2023-06-13T08:31:53.770Z,3.77
2023-06-13T08:34:21.485Z,4.03
2023-06-13T08:36:49.012Z,3.50
2023-06-13T08:39:16.957Z,3.83
2023-06-13T08:41:44.872Z,3.77
2023-06-13T08:44:12.411Z,3.77
2023-06-13T08:46:39.865Z,3.80
2023-06-13T08:49:08.820Z,3.90
2023-06-13T08:51:38.433Z,3.50
2023-06-13T08:54:07.450Z,3.63
2023-06-13T08:56:38.628Z,3.73
2023-06-13T08:59:09.425Z,3.93
2023-06-13T09:01:39.121Z,3.63
2023-06-13T09:04:07.055Z,4.27
2023-06-13T09:06:38.753Z,4.13
2023-06-13T09:09:07.427Z,4.70
2023-06-13T09:11:35.692Z,4.07
2023-06-13T09:14:04.595Z,3.63
2023-06-13T09:16:32.240Z,3.90
2023-06-13T09:19:00.519Z,3.97
2023-06-13T09:21:29.835Z,3.80
2023-06-13T09:24:00.275Z,3.83
2023-06-13T09:26:28.296Z,3.63
2023-06-13T09:28:55.788Z,3.70
2023-06-13T09:31:23.392Z,3.73
2023-06-13T09:33:51.086Z,3.80
2023-06-13T09:36:19.495Z,4.00
2023-06-13T09:38:49.213Z,3.73
2023-06-13T09:41:20.590Z,4.00
2023-06-13T09:43:48.134Z,4.10
2023-06-13T09:46:15.670Z,3.83
2023-06-13T09:48:45.714Z,3.70
2023-06-13T09:51:13.454Z,4.00
2023-06-13T09:53:41.228Z,4.00
2023-06-13T09:56:09.916Z,3.40
2023-06-13T09:58:39.118Z,4.07
2023-06-13T10:01:07.091Z,3.50
2023-06-13T10:03:34.628Z,4.10
2023-06-13T10:06:02.557Z,3.80
2023-06-13T10:08:32.284Z,4.13
2023-06-13T10:11:01.516Z,4.17
2023-06-13T10:13:30.612Z,4.20
2023-06-13T10:16:00.410Z,3.47
2023-06-13T10:18:30.903Z,3.73
2023-06-13T10:20:59.195Z,3.70
2023-06-13T10:23:29.932Z,3.90
2023-06-13T10:26:00.334Z,3.93
2023-06-13T10:28:35.438Z,3.70
2023-06-13T10:31:09.203Z,3.83
2023-06-13T10:33:47.085Z,3.67
2023-06-13T10:36:17.455Z,3.80
2023-06-13T10:38:55.012Z,3.87
2023-06-13T10:41:55.359Z,3.93
2023-06-13T10:44:26.054Z,4.07
2023-06-13T10:46:54.940Z,3.83
2023-06-13T10:49:22.836Z,3.80
2023-06-13T10:51:50.290Z,4.47
2023-06-13T10:54:18.826Z,3.80
2023-06-13T10:56:46.536Z,3.80
2023-06-13T10:59:15.624Z,4.10
2023-06-13T11:01:43.695Z,4.10
2023-06-13T11:04:13.482Z,3.50
2023-06-13T11:06:41.725Z,3.67
2023-06-13T11:09:10.221Z,3.63
2023-06-13T11:11:41.044Z,3.70
2023-06-13T11:14:08.972Z,3.67
2023-06-13T11:16:39.807Z,3.50
2023-06-13T11:19:07.574Z,3.97
2023-06-13T11:21:41.375Z,4.13
2023-06-13T11:24:09.185Z,3.70
2023-06-13T11:26:36.916Z,3.53
2023-06-13T11:29:04.740Z,3.73
2023-06-13T11:31:32.197Z,3.53
2023-06-13T11:34:01.764Z,3.80
2023-06-13T11:36:31.640Z,3.43
2023-06-13T11:39:03.656Z,3.95
2023-06-13T11:41:31.239Z,3.93
2023-06-13T11:43:58.791Z,3.50
2023-06-13T11:46:26.413Z,3.70
2023-06-13T11:48:57.584Z,3.67
2023-06-13T11:51:25.484Z,3.70
2023-06-13T11:53:53.634Z,3.22
2023-06-13T11:56:23.405Z,3.50
2023-06-13T11:58:50.970Z,3.30
2023-06-13T12:01:21.767Z,3.63
2023-06-13T12:03:50.127Z,3.73
2023-06-13T12:06:18.268Z,3.40
2023-06-13T12:08:46.675Z,3.40
2023-06-13T12:11:24.452Z,3.40
2023-06-13T12:13:59.350Z,3.87
2023-06-13T12:16:27.942Z,3.55
2023-06-13T12:18:55.784Z,3.38
2023-06-13T12:21:28.409Z,3.40
2023-06-13T12:23:56.390Z,3.37
2023-06-13T12:26:23.933Z,3.75
2023-06-13T12:28:53.391Z,3.53
2023-06-13T12:31:31.154Z,3.38
2023-06-13T12:34:08.533Z,3.67
2023-06-13T12:36:42.010Z,3.50
2023-06-13T12:39:11.513Z,3.60
2023-06-13T12:41:39.655Z,3.53
2023-06-13T12:44:08.674Z,3.80
2023-06-13T12:46:39.574Z,3.60
2023-06-13T12:49:11.423Z,3.38
2023-06-13T12:51:42.490Z,3.58
2023-06-13T12:54:12.104Z,3.75
2023-06-13T12:56:43.442Z,3.22
2023-06-13T12:59:10.952Z,3.50
2023-06-13T13:01:39.794Z,3.35
2023-06-13T13:04:07.469Z,3.88
2023-06-13T13:06:34.918Z,3.15
2023-06-13T13:09:02.940Z,3.90
2023-06-13T13:11:30.461Z,3.35
2023-06-13T13:13:57.922Z,3.63
2023-06-13T13:16:26.133Z,3.60
2023-06-13T13:18:54.938Z,3.50
2023-06-13T13:21:22.552Z,3.65
2023-06-13T13:23:50.112Z,3.22
2023-06-13T13:26:17.669Z,3.35
2023-06-13T13:28:45.316Z,3.30
2023-06-13T13:31:12.810Z,3.53
2023-06-13T13:33:40.263Z,3.50
2023-06-13T13:36:09.127Z,3.22
2023-06-13T13:38:36.837Z,3.20
2023-06-13T13:41:04.327Z,3.40
2023-06-13T13:43:31.856Z,3.10
2023-06-13T13:45:59.340Z,3.10
2023-06-13T13:48:27.091Z,3.55
2023-06-13T13:50:55.055Z,3.50
2023-06-13T13:53:24.026Z,3.30
2023-06-13T13:55:51.555Z,3.50
2023-06-13T13:58:20.018Z,3.40
2023-06-13T14:00:47.591Z,3.40
2023-06-13T14:03:15.235Z,3.22
2023-06-13T14:05:42.802Z,2.95
2023-06-13T14:08:11.190Z,3.35
2023-06-13T14:10:40.102Z,3.30
2023-06-13T14:13:07.640Z,3.47
2023-06-13T14:15:35.124Z,3.13
2023-06-13T14:18:02.869Z,3.30
2023-06-13T14:20:30.380Z,3.33
2023-06-13T14:22:58.809Z,3.22
2023-06-13T14:25:26.213Z,3.28
2023-06-13T14:27:54.992Z,3.10
2023-06-13T14:30:22.880Z,3.35
2023-06-13T14:32:51.628Z,3.20
2023-06-13T14:35:19.670Z,3.58
2023-06-13T14:37:47.356Z,3.20
2023-06-13T14:40:15.184Z,2.95
2023-06-13T14:42:45.225Z,3.10
2023-06-13T14:45:14.978Z,3.00
2023-06-13T14:47:42.806Z,3.28
2023-06-13T14:50:11.014Z,3.47
2023-06-13T14:52:38.592Z,3.25
2023-06-13T14:55:06.464Z,3.10
2023-06-13T14:57:33.965Z,2.92
2023-06-13T15:00:01.722Z,3.10
2023-06-13T15:02:30.646Z,3.47
2023-06-13T15:04:58.204Z,3.17
2023-06-13T15:07:25.765Z,3.50
2023-06-13T15:09:53.319Z,3.40
2023-06-13T15:12:20.842Z,3.20
2023-06-13T15:14:48.464Z,3.25
2023-06-13T15:17:17.476Z,3.10
2023-06-13T15:19:46.296Z,3.28
2023-06-13T15:22:13.976Z,3.22
2023-06-13T15:24:41.573Z,3.40
2023-06-13T15:27:09.553Z,3.47
2023-06-13T15:29:37.082Z,3.45
2023-06-13T15:32:05.391Z,3.63
2023-06-13T15:34:33.682Z,3.30
2023-06-13T15:37:02.759Z,3.25
2023-06-13T15:39:30.509Z,3.42
2023-06-13T15:41:58.115Z,2.92
2023-06-13T15:44:25.525Z,3.17
2023-06-13T15:46:53.354Z,2.88
2023-06-13T15:49:20.848Z,2.95
2023-06-13T15:51:48.531Z,3.20
2023-06-13T15:54:17.758Z,3.00
2023-06-13T15:56:45.271Z,3.20
2023-06-13T15:59:12.750Z,2.72
2023-06-13T16:01:44.294Z,2.88
2023-06-13T16:04:12.574Z,2.75
2023-06-13T16:06:40.394Z,2.78
2023-06-13T16:09:08.181Z,2.80
2023-06-13T16:11:37.164Z,2.67
2023-06-13T16:14:05.607Z,2.92
2023-06-13T16:16:33.129Z,2.97
2023-06-13T16:19:00.683Z,3.00
2023-06-13T16:21:28.178Z,2.80
2023-06-13T16:23:56.126Z,2.95
2023-06-13T16:26:23.636Z,2.92
2023-06-13T16:28:52.572Z,2.78
2023-06-13T16:31:20.127Z,2.95
2023-06-13T16:33:47.748Z,2.90
2023-06-13T16:36:15.266Z,3.08
2023-06-13T16:38:42.755Z,2.67
2023-06-13T16:41:10.760Z,2.80
2023-06-13T16:43:40.252Z,2.92
2023-06-13T16:46:09.154Z,3.20
2023-06-13T16:48:36.875Z,3.00
2023-06-13T16:51:04.817Z,2.83
2023-06-13T16:53:32.372Z,3.25
2023-06-13T16:55:59.881Z,3.28
2023-06-13T16:58:27.334Z,3.15
2023-06-13T17:00:55.937Z,3.20
2023-06-13T17:03:26.846Z,3.20
2023-06-13T17:05:54.477Z,3.38
2023-06-13T17:08:23.908Z,3.30
2023-06-13T17:10:51.404Z,3.40
2023-06-13T17:13:18.959Z,3.55
2023-06-13T17:15:46.780Z,3.33
2023-06-13T17:18:14.274Z,3.03
2023-06-13T17:20:46.557Z,3.13
2023-06-13T17:23:14.119Z,3.60
2023-06-13T17:25:41.921Z,3.25
2023-06-13T17:28:09.406Z,3.03
2023-06-13T17:30:37.014Z,3.20
2023-06-13T17:33:04.687Z,3.10
2023-06-13T17:35:32.157Z,3.30
2023-06-13T17:38:07.724Z,3.70
2023-06-13T17:40:35.256Z,3.50
2023-06-13T17:43:02.776Z,3.70
2023-06-13T17:45:30.320Z,3.50
2023-06-13T17:47:57.884Z,3.42
2023-06-13T17:50:25.478Z,3.42
2023-06-13T17:52:52.937Z,3.25
2023-06-13T17:55:21.790Z,3.45
2023-06-13T17:57:49.945Z,3.20
2023-06-13T18:00:17.675Z,2.92
2023-06-13T18:02:45.154Z,3.50
2023-06-13T18:05:12.942Z,3.38
2023-06-13T18:07:40.639Z,3.30
2023-06-13T18:10:08.476Z,3.38
2023-06-13T18:12:37.815Z,3.17
2023-06-13T18:15:05.905Z,3.13
2023-06-13T18:17:33.501Z,3.35
2023-06-13T18:20:01.021Z,3.40
2023-06-13T18:22:28.989Z,3.40
2023-06-13T18:24:56.471Z,3.70
2023-06-13T18:27:24.245Z,3.25
2023-06-13T18:29:53.778Z,3.17
2023-06-13T18:32:21.239Z,3.28
2023-06-13T18:34:49.007Z,3.50
2023-06-13T18:37:16.483Z,3.28
2023-06-13T18:39:43.940Z,3.45
2023-06-13T18:42:11.410Z,3.50
2023-06-13T18:44:41.511Z,3.55
2023-06-13T18:47:10.656Z,3.20
2023-06-13T18:49:38.281Z,3.58
2023-06-13T18:52:06.440Z,3.70
2023-06-13T18:54:34.041Z,3.22
2023-06-13T18:57:01.593Z,3.30
2023-06-13T18:59:29.079Z,3.40
2023-06-13T19:01:56.561Z,3.65
2023-06-13T19:04:25.371Z,3.50
2023-06-13T19:06:54.334Z,3.63
2023-06-13T19:09:22.580Z,3.58
2023-06-13T19:11:50.043Z,3.42
2023-06-13T19:14:17.501Z,3.40
2023-06-13T19:16:45.106Z,3.40
2023-06-13T19:19:12.665Z,3.15
2023-06-13T19:21:42.925Z,3.50
2023-06-13T19:24:10.420Z,3.70
2023-06-13T19:26:40.598Z,3.50
2023-06-13T19:29:08.070Z,3.45
2023-06-13T19:31:35.650Z,3.33
2023-06-13T19:34:03.719Z,3.10
2023-06-13T19:36:31.174Z,3.70
2023-06-13T19:39:00.124Z,4.00
2023-06-13T19:41:29.654Z,3.50
2023-06-13T19:43:57.277Z,3.27
2023-06-13T19:46:24.713Z,3.67
2023-06-13T19:48:52.524Z,3.53
2023-06-13T19:51:20.218Z,3.53
2023-06-13T19:53:47.821Z,3.30
2023-06-13T19:56:17.747Z,3.35
2023-06-13T19:58:45.261Z,3.10
2023-06-13T20:01:12.751Z,3.40
2023-06-13T20:03:41.130Z,3.13
2023-06-13T20:06:10.728Z,3.27
2023-06-13T20:08:38.152Z,3.43
2023-06-13T20:11:06.138Z,3.37
2023-06-13T20:13:35.932Z,3.47
2023-06-13T20:16:05.064Z,3.30
2023-06-13T20:18:32.590Z,4.70
2023-06-13T20:21:00.209Z,3.63
2023-06-13T20:23:27.709Z,3.20
2023-06-13T20:25:55.145Z,3.27
2023-06-13T20:28:22.717Z,3.47
2023-06-13T20:30:51.610Z,3.63
2023-06-13T20:33:19.059Z,3.30
2023-06-13T20:35:46.605Z,3.47
2023-06-13T20:38:14.097Z,3.40
2023-06-13T20:40:41.566Z,3.30
2023-06-13T20:43:12.034Z,3.87
2023-06-13T20:45:40.394Z,3.50
2023-06-13T20:48:09.316Z,3.30
2023-06-13T20:50:38.739Z,3.50
2023-06-13T20:53:06.919Z,3.70
2023-06-13T20:55:34.526Z,3.60
2023-06-13T20:58:02.124Z,3.43
2023-06-13T21:00:30.392Z,3.37
2023-06-13T21:02:58.291Z,3.30
2023-06-13T21:05:27.925Z,3.53
2023-06-13T21:07:58.216Z,3.87
2023-06-13T21:10:26.269Z,3.10
2023-06-13T21:12:54.977Z,3.57
2023-06-13T21:15:23.268Z,3.30
2023-06-13T21:17:51.637Z,3.47
2023-06-13T21:20:20.584Z,3.30
2023-06-13T21:22:49.733Z,3.47
2023-06-13T21:25:19.490Z,3.20
2023-06-13T21:27:47.483Z,3.03
2023-06-13T21:30:16.475Z,3.57
2023-06-13T21:32:44.672Z,3.03
2023-06-13T21:35:12.349Z,3.30
2023-06-13T21:37:39.899Z,3.40
2023-06-13T21:40:09.813Z,3.03
2023-06-13T21:42:37.462Z,3.30
2023-06-13T21:45:05.694Z,3.23
2023-06-13T21:47:34.747Z,3.60
2023-06-13T21:50:05.874Z,3.60
2023-06-13T21:52:33.732Z,3.50
2023-06-13T21:55:07.245Z,3.43
2023-06-13T21:57:36.092Z,3.20
2023-06-13T22:00:05.564Z,3.37
2023-06-13T22:02:33.153Z,3.50
2023-06-13T22:05:00.925Z,3.50
2023-06-13T22:07:30.970Z,3.40
2023-06-13T22:09:58.440Z,3.50
2023-06-13T22:12:30.025Z,3.13
2023-06-13T22:14:58.870Z,3.03
2023-06-13T22:17:29.661Z,3.40
2023-06-13T22:19:57.779Z,3.33
2023-06-13T22:22:28.236Z,3.33
2023-06-13T22:24:55.958Z,3.10
2023-06-13T22:27:23.553Z,3.50
2023-06-13T22:29:53.032Z,3.37
2023-06-13T22:32:22.014Z,3.10
2023-06-13T22:34:49.627Z,3.17
2023-06-13T22:37:17.598Z,3.20
2023-06-13T22:39:45.042Z,3.03
2023-06-13T22:42:12.530Z,3.10
2023-06-13T22:44:39.981Z,3.13
2023-06-13T22:47:07.680Z,3.20
2023-06-13T22:49:36.495Z,3.30
2023-06-13T22:52:04.661Z,3.13
2023-06-13T22:54:32.109Z,3.60
2023-06-13T22:56:59.579Z,3.70
2023-06-13T22:59:27.202Z,2.93
2023-06-13T23:01:54.765Z,3.33
2023-06-13T23:04:23.084Z,3.07
2023-06-13T23:06:52.163Z,3.37
2023-06-13T23:09:19.618Z,3.00
2023-06-13T23:11:47.069Z,3.30
2023-06-13T23:14:14.577Z,3.37
2023-06-13T23:16:42.504Z,3.07
2023-06-13T23:19:10.001Z,3.13
2023-06-13T23:21:37.430Z,3.30
2023-06-13T23:24:07.132Z,3.53
2023-06-13T23:26:34.671Z,3.13
2023-06-13T23:29:03.940Z,2.90
2023-06-13T23:31:32.632Z,3.17
2023-06-13T23:34:00.240Z,3.20
2023-06-13T23:36:29.017Z,3.30
2023-06-13T23:38:56.523Z,3.30
2023-06-13T23:41:27.738Z,3.30
2023-06-13T23:43:55.237Z,3.20
2023-06-13T23:46:22.854Z,3.50
2023-06-13T23:48:50.368Z,3.30
2023-06-13T23:51:17.859Z,3.23
2023-06-13T23:53:45.320Z,3.37
2023-06-13T23:56:13.096Z,3.40
2023-06-13T23:58:41.923Z,3.37
